createdAt,value
2019-02-24T00:00:40.332Z,39.24
2019-02-24T00:03:08.895Z,38.83
2019-02-24T00:05:37.585Z,40.12
2019-02-24T00:08:06.281Z,38.88
2019-02-24T00:10:35.191Z,39.09
2019-02-24T00:13:04.016Z,39.07
2019-02-24T00:15:32.595Z,39.88
2019-02-24T00:18:01.666Z,39.64
2019-02-24T00:20:30.421Z,39.30
2019-02-24T00:22:59.011Z,39.53
2019-02-24T00:25:28.072Z,39.94
2019-02-24T00:27:56.823Z,40.85
2019-02-24T00:30:25.406Z,40.12
2019-02-24T00:32:54.045Z,40.50
2019-02-24T00:35:22.942Z,40.06
2019-02-24T00:37:51.515Z,40.43
2019-02-24T00:40:20.101Z,41.14
2019-02-24T00:42:48.919Z,39.97
2019-02-24T00:45:17.573Z,39.34
2019-02-24T00:47:46.655Z,39.46
2019-02-24T00:50:15.289Z,40.00
2019-02-24T00:52:43.860Z,39.91
2019-02-24T00:55:12.443Z,39.41
2019-02-24T00:57:41.024Z,39.50
2019-02-24T01:00:10.031Z,39.85
2019-02-24T01:02:38.794Z,39.97
2019-02-24T01:05:07.562Z,40.30
2019-02-24T01:07:36.146Z,40.34
2019-02-24T01:10:04.892Z,40.04
2019-02-24T01:12:33.795Z,39.76
2019-02-24T01:15:02.390Z,40.16
2019-02-24T01:17:31.033Z,39.54
2019-02-24T01:19:59.846Z,40.41
2019-02-24T01:22:28.448Z,39.06
2019-02-24T01:24:57.064Z,40.16
2019-02-24T01:27:25.950Z,38.39
2019-02-24T01:29:54.535Z,38.29
2019-02-24T01:32:23.351Z,39.21
2019-02-24T01:34:51.938Z,38.25
2019-02-24T01:37:20.750Z,38.69
2019-02-24T01:39:49.363Z,38.96
2019-02-24T01:42:17.961Z,39.62
2019-02-24T01:44:46.543Z,40.26
2019-02-24T01:47:15.381Z,40.62
2019-02-24T01:49:43.949Z,40.49
2019-02-24T01:52:12.537Z,39.01
2019-02-24T01:54:41.152Z,39.44
2019-02-24T01:57:09.753Z,39.87
2019-02-24T01:59:38.335Z,39.46
2019-02-24T02:02:06.488Z,39.27
2019-02-24T02:04:35.074Z,40.08
2019-02-24T02:07:03.885Z,37.71
2019-02-24T02:09:32.497Z,38.16
2019-02-24T02:12:01.051Z,39.17
2019-02-24T02:14:29.694Z,40.01
2019-02-24T02:16:58.286Z,40.03
2019-02-24T02:19:26.860Z,39.19
2019-02-24T02:21:55.425Z,41.20
2019-02-24T02:24:24.070Z,39.02
2019-02-24T02:26:52.878Z,38.02
2019-02-24T02:29:21.462Z,34.64
2019-02-24T02:31:50.049Z,32.81
2019-02-24T02:34:18.672Z,28.61
2019-02-24T02:36:47.271Z,27.16
2019-02-24T02:39:15.893Z,27.48
2019-02-24T02:41:44.458Z,27.49
2019-02-24T02:44:13.274Z,25.61
2019-02-24T02:46:42.122Z,26.04
2019-02-24T02:49:10.734Z,28.38
2019-02-24T02:51:39.305Z,24.80
2019-02-24T02:54:07.912Z,24.31
2019-02-24T02:56:36.505Z,22.93
2019-02-24T02:59:05.428Z,23.69
2019-02-24T03:01:34.008Z,23.17
2019-02-24T03:04:02.588Z,23.02
2019-02-24T03:06:44.741Z,23.49
2019-02-24T03:09:13.343Z,22.33
2019-02-24T03:11:41.914Z,22.88
2019-02-24T03:14:10.745Z,23.33
2019-02-24T03:16:39.320Z,22.98
2019-02-24T03:19:07.934Z,21.99
2019-02-24T03:21:36.505Z,23.25
2019-02-24T03:24:05.120Z,22.30
2019-02-24T03:26:33.930Z,23.29
2019-02-24T03:29:04.404Z,24.53
2019-02-24T03:31:33.155Z,25.97
2019-02-24T03:34:01.740Z,26.33
2019-02-24T03:36:30.546Z,26.79
2019-02-24T03:38:59.165Z,27.69
2019-02-24T03:41:27.965Z,28.69
2019-02-24T03:43:56.587Z,29.09
2019-02-24T03:46:25.390Z,28.33
2019-02-24T03:48:53.948Z,28.04
2019-02-24T03:51:22.522Z,27.02
2019-02-24T03:53:51.424Z,26.12
2019-02-24T03:56:20.465Z,27.76
2019-02-24T03:58:49.455Z,28.48
2019-02-24T04:01:18.155Z,27.68
2019-02-24T04:03:46.761Z,29.42
2019-02-24T04:06:15.333Z,29.18
2019-02-24T04:08:44.149Z,28.12
2019-02-24T04:11:12.754Z,27.51
2019-02-24T04:13:41.359Z,28.44
2019-02-24T04:16:09.893Z,30.34
2019-02-24T04:18:38.472Z,28.48
2019-02-24T04:21:07.298Z,32.26
2019-02-24T04:23:36.107Z,31.10
2019-02-24T04:26:05.019Z,29.05
2019-02-24T04:28:33.591Z,29.12
2019-02-24T04:31:02.445Z,29.35
2019-02-24T04:33:31.256Z,30.07
2019-02-24T04:35:59.861Z,30.63
2019-02-24T04:38:28.696Z,29.73
2019-02-24T04:40:57.295Z,30.10
2019-02-24T04:43:25.888Z,32.94
2019-02-24T04:45:54.478Z,30.75
2019-02-24T04:48:23.048Z,33.17
2019-02-24T04:50:51.669Z,32.70
2019-02-24T04:53:20.250Z,33.70
2019-02-24T04:55:48.823Z,33.92
2019-02-24T04:58:17.374Z,32.94
2019-02-24T05:00:46.240Z,32.50
2019-02-24T05:03:14.810Z,32.75
2019-02-24T05:05:43.411Z,32.44
2019-02-24T05:08:12.010Z,33.24
2019-02-24T05:10:40.867Z,33.17
2019-02-24T05:13:09.435Z,33.09
2019-02-24T05:15:38.036Z,34.06
2019-02-24T05:18:06.614Z,33.42
2019-02-24T05:20:35.196Z,32.64
2019-02-24T05:23:03.788Z,33.64
2019-02-24T05:25:32.394Z,32.91
2019-02-24T05:28:00.971Z,33.31
2019-02-24T05:30:29.812Z,32.77
2019-02-24T05:32:58.837Z,32.08
2019-02-24T05:35:27.430Z,32.18
2019-02-24T05:37:56.319Z,32.56
2019-02-24T05:40:24.877Z,31.99
2019-02-24T05:42:53.581Z,32.87
2019-02-24T05:45:22.162Z,34.35
2019-02-24T05:47:50.749Z,31.63
2019-02-24T05:50:19.325Z,30.86
2019-02-24T05:52:48.136Z,30.67
2019-02-24T05:55:16.702Z,32.69
2019-02-24T05:57:45.276Z,34.06
2019-02-24T06:00:13.861Z,32.58
2019-02-24T06:02:42.463Z,33.75
2019-02-24T06:05:11.090Z,33.67
2019-02-24T06:07:39.631Z,34.86
2019-02-24T06:10:08.216Z,34.32
2019-02-24T06:12:37.326Z,35.31
2019-02-24T06:15:06.313Z,34.28
2019-02-24T06:17:34.889Z,36.64
2019-02-24T06:20:03.662Z,34.27
2019-02-24T06:22:32.485Z,33.77
2019-02-24T06:25:01.114Z,35.22
2019-02-24T06:27:29.672Z,34.79
2019-02-24T06:30:04.902Z,34.18
2019-02-24T06:32:29.003Z,35.66
2019-02-24T06:34:57.611Z,33.42
2019-02-24T06:37:26.446Z,34.66
2019-02-24T06:39:55.101Z,35.55
2019-02-24T06:42:23.681Z,34.59
2019-02-24T06:44:52.303Z,36.00
2019-02-24T06:47:20.870Z,34.57
2019-02-24T06:49:49.842Z,35.74
2019-02-24T06:52:22.833Z,35.25
2019-02-24T06:54:51.453Z,35.76
2019-02-24T06:57:20.157Z,35.86
2019-02-24T06:59:48.743Z,35.40
2019-02-24T07:02:17.405Z,35.59
2019-02-24T07:04:46.281Z,36.53
2019-02-24T07:07:15.032Z,35.69
2019-02-24T07:09:43.628Z,35.74
2019-02-24T07:12:12.269Z,36.29
2019-02-24T07:14:43.007Z,34.56
2019-02-24T07:17:11.909Z,35.40
2019-02-24T07:19:40.504Z,34.85
2019-02-24T07:22:09.545Z,35.57
2019-02-24T07:24:38.242Z,35.08
2019-02-24T07:27:07.176Z,34.71
2019-02-24T07:29:35.817Z,34.73
2019-02-24T07:32:04.879Z,35.67
2019-02-24T07:34:33.711Z,34.80
2019-02-24T07:37:02.431Z,35.24
2019-02-24T07:39:31.053Z,33.91
2019-02-24T07:41:59.715Z,34.50
2019-02-24T07:44:28.538Z,35.41
2019-02-24T07:46:57.211Z,33.84
2019-02-24T07:49:25.952Z,33.34
2019-02-24T07:51:54.577Z,34.00
2019-02-24T07:54:23.470Z,32.80
2019-02-24T07:56:52.142Z,31.76
2019-02-24T07:59:20.745Z,30.71
2019-02-24T08:01:49.331Z,31.39
2019-02-24T08:04:17.977Z,32.00
2019-02-24T08:06:46.616Z,31.61
2019-02-24T08:09:15.500Z,32.15
2019-02-24T08:11:44.413Z,31.30
2019-02-24T08:14:13.146Z,29.77
2019-02-24T08:16:42.075Z,30.33
2019-02-24T08:19:10.959Z,29.97
2019-02-24T08:21:39.789Z,29.29
2019-02-24T08:24:08.392Z,28.12
2019-02-24T08:26:37.253Z,28.29
2019-02-24T08:29:05.927Z,28.22
2019-02-24T08:31:34.512Z,27.06
2019-02-24T08:34:03.167Z,26.87
2019-02-24T08:36:31.936Z,26.17
2019-02-24T08:39:00.928Z,24.64
2019-02-24T08:41:29.579Z,24.29
2019-02-24T08:43:58.216Z,24.82
2019-02-24T08:46:27.093Z,25.42
2019-02-24T08:48:56.100Z,24.70
2019-02-24T08:51:24.712Z,24.66
2019-02-24T08:53:53.560Z,23.83
2019-02-24T08:56:22.301Z,23.31
2019-02-24T08:58:50.925Z,22.50
2019-02-24T09:01:19.947Z,21.90
2019-02-24T09:03:48.611Z,19.42
2019-02-24T09:06:17.260Z,17.36
2019-02-24T09:08:46.107Z,15.47
2019-02-24T09:11:15.023Z,15.26
2019-02-24T09:13:43.630Z,13.95
2019-02-24T09:16:12.241Z,12.83
2019-02-24T09:18:40.824Z,10.58
2019-02-24T09:21:09.450Z,11.52
2019-02-24T09:23:38.063Z,9.04
2019-02-24T09:26:06.731Z,9.97
2019-02-24T09:28:35.618Z,8.49
2019-02-24T09:31:04.230Z,8.38
2019-02-24T09:33:32.928Z,8.21
2019-02-24T09:36:01.895Z,8.83
2019-02-24T09:38:31.028Z,8.58
2019-02-24T09:41:01.220Z,8.61
2019-02-24T09:43:30.333Z,7.68
2019-02-24T09:45:58.918Z,7.54
2019-02-24T09:48:27.505Z,7.46
2019-02-24T09:50:56.121Z,7.47
2019-02-24T09:53:25.048Z,7.28
2019-02-24T09:55:54.046Z,7.10
2019-02-24T09:58:22.636Z,6.89
2019-02-24T10:00:51.242Z,7.12
2019-02-24T10:03:19.940Z,7.06
2019-02-24T10:05:48.528Z,6.96
2019-02-24T10:08:17.505Z,6.87
2019-02-24T10:10:46.166Z,6.20
2019-02-24T10:13:14.895Z,6.18
2019-02-24T10:15:43.702Z,5.51
2019-02-24T10:18:12.322Z,5.65
2019-02-24T10:20:41.291Z,5.84
2019-02-24T10:23:09.926Z,5.89
2019-02-24T10:25:38.976Z,5.23
2019-02-24T10:28:07.607Z,5.67
2019-02-24T10:30:36.509Z,5.03
2019-02-24T10:33:05.184Z,5.46
2019-02-24T10:35:33.804Z,5.85
2019-02-24T10:38:02.412Z,5.88
2019-02-24T10:40:31.177Z,5.28
2019-02-24T10:43:00.279Z,5.73
2019-02-24T10:45:28.866Z,6.37
2019-02-24T10:47:57.551Z,5.95
2019-02-24T10:50:26.171Z,6.39
2019-02-24T10:52:54.794Z,6.24
2019-02-24T10:55:23.442Z,6.49
2019-02-24T10:57:52.380Z,6.38
2019-02-24T11:00:20.993Z,6.49
2019-02-24T11:02:50.205Z,6.92
2019-02-24T11:05:18.939Z,7.68
2019-02-24T11:07:47.606Z,8.41
2019-02-24T11:10:16.273Z,8.11
2019-02-24T11:12:45.066Z,9.02
2019-02-24T11:15:13.645Z,9.49
2019-02-24T11:17:42.244Z,10.03
2019-02-24T11:20:11.265Z,9.88
2019-02-24T11:22:39.994Z,10.34
2019-02-24T11:25:09.318Z,11.04
2019-02-24T11:27:37.939Z,11.12
2019-02-24T11:30:07.378Z,11.82
2019-02-24T11:32:36.999Z,11.15
2019-02-24T11:35:05.896Z,11.42
2019-02-24T11:37:34.507Z,11.57
2019-02-24T11:40:03.249Z,11.91
2019-02-24T11:42:31.837Z,12.32
2019-02-24T11:45:00.565Z,12.61
2019-02-24T11:47:29.238Z,13.33
2019-02-24T11:49:57.834Z,14.14
2019-02-24T11:52:26.427Z,14.16
2019-02-24T11:54:55.281Z,14.27
2019-02-24T11:57:24.335Z,13.74
2019-02-24T11:59:53.408Z,12.86
2019-02-24T12:02:22.242Z,12.00
2019-02-24T12:04:50.880Z,12.22
2019-02-24T12:07:19.570Z,10.97
2019-02-24T12:09:48.210Z,11.32
2019-02-24T12:12:17.040Z,11.14
2019-02-24T12:14:45.671Z,10.88
2019-02-24T12:17:14.355Z,10.79
2019-02-24T12:19:42.983Z,10.75
2019-02-24T12:22:11.600Z,10.38
2019-02-24T12:24:40.350Z,10.57
2019-02-24T12:27:09.163Z,10.84
2019-02-24T12:29:38.017Z,10.62
2019-02-24T12:32:06.774Z,10.71
2019-02-24T12:34:35.391Z,10.70
2019-02-24T12:37:04.063Z,10.14
2019-02-24T12:39:32.774Z,10.86
2019-02-24T12:42:01.342Z,10.77
2019-02-24T12:44:30.281Z,10.76
2019-02-24T12:47:00.454Z,10.88
2019-02-24T12:49:29.508Z,10.85
2019-02-24T12:51:58.221Z,11.09
2019-02-24T12:54:27.154Z,10.85
2019-02-24T12:56:55.822Z,11.63
2019-02-24T12:59:24.414Z,11.61
2019-02-24T13:01:53.276Z,11.44
2019-02-24T13:04:22.130Z,12.12
2019-02-24T13:06:50.891Z,12.53
2019-02-24T13:09:19.733Z,12.95
2019-02-24T13:11:48.746Z,13.37
2019-02-24T13:14:17.881Z,14.16
2019-02-24T13:16:46.809Z,12.72
2019-02-24T13:19:15.767Z,13.24
2019-02-24T13:21:46.392Z,14.60
2019-02-24T13:24:14.844Z,16.14
2019-02-24T13:26:43.676Z,16.84
2019-02-24T13:29:12.338Z,16.95
2019-02-24T13:31:41.192Z,16.94
2019-02-24T13:34:09.798Z,17.16
2019-02-24T13:36:38.622Z,16.40
2019-02-24T13:39:07.325Z,16.82
2019-02-24T13:41:36.041Z,17.12
2019-02-24T13:44:04.780Z,17.35
2019-02-24T13:46:33.429Z,17.70
2019-02-24T13:49:02.366Z,17.82
2019-02-24T13:51:31.007Z,18.05
2019-02-24T13:53:59.654Z,17.77
2019-02-24T13:56:28.241Z,18.67
2019-02-24T13:58:57.153Z,18.06
2019-02-24T14:01:26.061Z,17.21
2019-02-24T14:03:54.713Z,17.91
2019-02-24T14:06:23.426Z,17.60
2019-02-24T14:08:52.277Z,17.42
2019-02-24T14:11:20.877Z,16.51
2019-02-24T14:13:49.587Z,17.55
2019-02-24T14:16:20.514Z,16.88
2019-02-24T14:18:50.049Z,16.88
2019-02-24T14:21:18.773Z,17.32
2019-02-24T14:23:47.405Z,17.65
2019-02-24T14:26:16.149Z,17.97
2019-02-24T14:28:44.741Z,18.30
2019-02-24T14:31:13.552Z,18.07
2019-02-24T14:33:42.194Z,18.28
2019-02-24T14:36:11.079Z,18.03
2019-02-24T14:38:39.991Z,19.24
2019-02-24T14:41:08.986Z,19.63
2019-02-24T14:43:37.924Z,19.10
2019-02-24T14:46:06.862Z,18.93
2019-02-24T14:48:35.766Z,19.53
2019-02-24T14:51:04.423Z,19.90
2019-02-24T14:53:33.190Z,19.56
2019-02-24T14:56:02.011Z,20.29
2019-02-24T14:58:30.730Z,19.83
2019-02-24T15:01:00.731Z,19.63
2019-02-24T15:03:29.603Z,20.41
2019-02-24T15:05:58.625Z,19.90
2019-02-24T15:08:27.401Z,21.46
2019-02-24T15:10:56.099Z,21.74
2019-02-24T15:13:24.822Z,21.06
2019-02-24T15:15:53.582Z,21.44
2019-02-24T15:18:22.477Z,21.34
2019-02-24T15:20:51.275Z,21.60
2019-02-24T15:23:20.029Z,21.47
2019-02-24T15:25:48.696Z,21.43
2019-02-24T15:28:17.336Z,21.02
2019-02-24T15:30:46.054Z,21.11
2019-02-24T15:33:14.754Z,20.97
2019-02-24T15:35:43.599Z,21.28
2019-02-24T15:38:12.170Z,21.28
2019-02-24T15:40:40.853Z,22.43
2019-02-24T15:43:09.468Z,22.05
2019-02-24T15:45:38.683Z,22.62
2019-02-24T15:48:07.420Z,23.08
2019-02-24T15:50:36.107Z,22.31
2019-02-24T15:53:04.875Z,22.75
2019-02-24T15:55:33.520Z,22.91
2019-02-24T15:58:02.360Z,23.79
2019-02-24T16:00:31.928Z,24.72
2019-02-24T16:03:01.992Z,23.90
2019-02-24T16:05:30.768Z,22.71
2019-02-24T16:07:59.794Z,22.95
2019-02-24T16:10:28.363Z,23.01
2019-02-24T16:12:57.345Z,22.68
2019-02-24T16:15:26.013Z,23.45
2019-02-24T16:17:54.754Z,23.82
2019-02-24T16:20:24.546Z,24.37
2019-02-24T16:22:53.280Z,23.49
2019-02-24T16:25:22.120Z,23.16
2019-02-24T16:27:51.072Z,23.96
2019-02-24T16:30:19.853Z,24.48
2019-02-24T16:32:48.897Z,29.57
2019-02-24T16:35:20.824Z,30.55
2019-02-24T16:37:49.828Z,30.39
2019-02-24T16:40:18.861Z,31.54
2019-02-24T16:42:47.534Z,32.95
2019-02-24T16:45:16.267Z,32.00
2019-02-24T16:47:45.105Z,32.82
2019-02-24T16:50:14.961Z,33.68
2019-02-24T16:52:43.925Z,33.07
2019-02-24T16:55:13.316Z,32.87
2019-02-24T16:57:42.493Z,33.82
2019-02-24T17:00:16.042Z,34.12
2019-02-24T17:02:44.685Z,33.90
2019-02-24T17:05:13.552Z,33.92
2019-02-24T17:07:42.271Z,35.26
2019-02-24T17:10:11.958Z,36.09
2019-02-24T17:12:40.765Z,35.96
2019-02-24T17:15:10.264Z,35.92
2019-02-24T17:17:39.137Z,35.89
2019-02-24T17:20:09.777Z,35.94
2019-02-24T17:22:38.448Z,35.94
2019-02-24T17:25:07.594Z,36.41
2019-02-24T17:27:36.576Z,35.57
2019-02-24T17:30:05.649Z,36.80
2019-02-24T17:32:34.283Z,36.34
2019-02-24T17:35:03.158Z,35.53
2019-02-24T17:37:31.859Z,35.45
2019-02-24T17:40:00.473Z,35.97
2019-02-24T17:42:29.358Z,35.97
2019-02-24T17:44:58.250Z,36.63
2019-02-24T17:47:27.130Z,36.63
2019-02-24T17:49:56.109Z,36.63
2019-02-24T17:52:24.897Z,37.42
2019-02-24T17:54:53.847Z,38.11
2019-02-24T17:57:22.630Z,38.11
2019-02-24T17:59:51.644Z,39.22
2019-02-24T18:02:20.301Z,39.01
2019-02-24T18:04:49.103Z,39.75
2019-02-24T18:07:17.774Z,39.56
2019-02-24T18:09:46.422Z,39.80
2019-02-24T18:12:15.150Z,40.36
2019-02-24T18:14:43.828Z,39.27
2019-02-24T18:17:12.510Z,38.67
2019-02-24T18:19:41.239Z,39.74
2019-02-24T18:22:09.931Z,39.97
2019-02-24T18:24:38.547Z,39.01
2019-02-24T18:27:07.228Z,39.69
2019-02-24T18:29:36.972Z,38.59
2019-02-24T18:32:05.644Z,39.32
2019-02-24T18:34:34.282Z,39.79
2019-02-24T18:37:02.941Z,39.79
2019-02-24T18:39:31.672Z,40.72
2019-02-24T18:42:00.279Z,38.80
2019-02-24T18:44:29.051Z,37.50
2019-02-24T18:46:57.715Z,38.31
2019-02-24T18:49:26.900Z,39.07
2019-02-24T18:51:55.486Z,38.92
2019-02-24T18:54:24.257Z,39.55
2019-02-24T18:56:52.919Z,39.09
2019-02-24T18:59:21.600Z,37.22
2019-02-24T19:01:50.189Z,38.20
2019-02-24T19:04:18.963Z,38.37
2019-02-24T19:06:47.569Z,37.95
2019-02-24T19:09:16.224Z,38.51
2019-02-24T19:11:45.044Z,39.39
2019-02-24T19:14:13.750Z,38.42
2019-02-24T19:16:42.367Z,38.84
2019-02-24T19:19:11.088Z,37.79
2019-02-24T19:21:39.720Z,38.99
2019-02-24T19:24:08.415Z,38.06
2019-02-24T19:26:37.256Z,39.39
2019-02-24T19:29:06.152Z,38.90
2019-02-24T19:31:34.925Z,39.02
2019-02-24T19:34:06.922Z,39.77
2019-02-24T19:36:35.859Z,39.39
2019-02-24T19:39:05.857Z,40.58
2019-02-24T19:41:34.657Z,41.31
2019-02-24T19:44:03.929Z,39.92
2019-02-24T19:46:32.525Z,39.10
2019-02-24T19:49:01.198Z,40.30
2019-02-24T19:51:30.472Z,41.79
2019-02-24T19:53:59.148Z,41.61
2019-02-24T19:56:27.822Z,41.42
2019-02-24T19:58:56.452Z,41.76
2019-02-24T20:01:25.312Z,41.53
2019-02-24T20:03:54.362Z,41.50
2019-02-24T20:06:23.031Z,41.94
2019-02-24T20:08:51.686Z,41.31
2019-02-24T20:11:20.291Z,41.30
2019-02-24T20:13:49.084Z,41.71
2019-02-24T20:16:17.722Z,43.33
2019-02-24T20:18:47.546Z,42.97
2019-02-24T20:21:16.237Z,42.82
2019-02-24T20:23:45.083Z,42.27
2019-02-24T20:26:14.034Z,42.26
2019-02-24T20:28:43.148Z,42.78
2019-02-24T20:31:12.118Z,43.35
2019-02-24T20:33:40.874Z,42.72
2019-02-24T20:36:09.505Z,41.93
2019-02-24T20:38:38.440Z,42.65
2019-02-24T20:41:07.120Z,41.79
2019-02-24T20:43:35.989Z,42.91
2019-02-24T20:46:04.611Z,42.78
2019-02-24T20:48:33.600Z,42.13
2019-02-24T20:51:02.197Z,42.43
2019-02-24T20:53:30.814Z,41.59
2019-02-24T20:55:59.435Z,40.48
2019-02-24T20:58:28.273Z,41.38
2019-02-24T21:00:57.219Z,41.18
2019-02-24T21:03:25.835Z,41.00
2019-02-24T21:05:54.419Z,41.89
2019-02-24T21:08:23.376Z,40.84
2019-02-24T21:10:53.210Z,41.03
2019-02-24T21:13:21.794Z,40.75
2019-02-24T21:15:50.404Z,40.14
2019-02-24T21:18:19.007Z,39.73
2019-02-24T21:20:47.872Z,40.50
2019-02-24T21:23:16.499Z,40.21
2019-02-24T21:25:45.386Z,41.94
2019-02-24T21:28:15.020Z,41.88
2019-02-24T21:30:43.924Z,41.66
2019-02-24T21:33:12.569Z,42.10
2019-02-24T21:35:41.153Z,41.02
2019-02-24T21:38:09.774Z,40.65
2019-02-24T21:40:38.463Z,41.01
2019-02-24T21:43:08.120Z,41.73
2019-02-24T21:45:36.983Z,42.61
2019-02-24T21:48:05.681Z,42.22
2019-02-24T21:50:34.499Z,40.89
2019-02-24T21:53:03.493Z,40.96
2019-02-24T21:55:32.314Z,41.82
2019-02-24T21:58:01.005Z,43.04
2019-02-24T22:00:29.586Z,42.40
2019-02-24T22:02:58.363Z,41.00
2019-02-24T22:05:26.990Z,40.57
2019-02-24T22:07:55.939Z,41.19
2019-02-24T22:10:24.533Z,40.75
2019-02-24T22:12:53.595Z,41.71
2019-02-24T22:15:23.308Z,41.72
2019-02-24T22:17:52.129Z,43.07
2019-02-24T22:20:20.984Z,43.02
2019-02-24T22:22:49.837Z,42.42
2019-02-24T22:25:19.350Z,44.11
2019-02-24T22:27:48.285Z,42.40
2019-02-24T22:30:17.401Z,42.82
2019-02-24T22:32:46.091Z,42.76
2019-02-24T22:35:14.753Z,43.33
2019-02-24T22:37:43.448Z,43.01
2019-02-24T22:40:12.213Z,43.44
2019-02-24T22:42:40.918Z,43.88
2019-02-24T22:45:11.423Z,43.94
2019-02-24T22:47:40.040Z,44.19
2019-02-24T22:50:09.162Z,44.11
2019-02-24T22:52:37.792Z,43.46
2019-02-24T22:55:06.668Z,43.56
2019-02-24T22:57:35.250Z,43.27
2019-02-24T23:00:04.833Z,44.20
2019-02-24T23:02:33.755Z,43.62
2019-02-24T23:05:02.372Z,43.89
2019-02-24T23:07:30.970Z,44.17
2019-02-24T23:09:59.584Z,44.83
2019-02-24T23:12:28.153Z,45.10
2019-02-24T23:14:56.829Z,45.42
2019-02-24T23:17:25.427Z,45.19
2019-02-24T23:19:54.134Z,44.86
2019-02-24T23:22:22.756Z,44.66
2019-02-24T23:24:51.353Z,44.60
2019-02-24T23:27:19.974Z,44.35
2019-02-24T23:29:48.600Z,43.93
2019-02-24T23:32:17.237Z,44.78
2019-02-24T23:34:45.928Z,44.20
2019-02-24T23:37:14.528Z,45.40
2019-02-24T23:39:43.412Z,45.13
2019-02-24T23:42:12.269Z,45.04
2019-02-24T23:44:40.933Z,44.89
2019-02-24T23:47:09.626Z,45.42
2019-02-24T23:49:38.247Z,46.31
2019-02-24T23:52:07.200Z,46.70
2019-02-24T23:54:36.074Z,47.54
2019-02-24T23:57:04.719Z,47.60
2019-02-24T23:59:33.349Z,47.35
